Time;durP1;ratioP1;P1;durP2;ratioP2;P2;SDS_P1;SDS_P2;PMS_P1;PMS_P2;Temp;Humidity;BMP_temperature;BMP_pressure;BME280_temperature;BME280_humidity;BME280_pressure;Samples;Min_cycle;Max_cycle;Signal;HPM_P1;HPM_P2
2023/09/03 00:01:23;;;;;;;;;;;;;;;;;;5091378;27;19922;-71
2023/09/03 00:05:49;;;;;;;;;;;;;;;;;;5111623;27;19912;-70
2023/09/03 00:10:30;;;;;;;;;;;;;;;;;;5112033;27;19922;-71
2023/09/03 00:13:59;;;;;;;;;;;;;;;;;;5111911;27;20384;-71
2023/09/03 00:16:25;;;;;;;;;;;;;;;;;;5111224;28;19995;-70
2023/09/03 00:19:08;;;;;;;;;;;;;;;;;;5112307;27;19916;-71
2023/09/03 00:21:34;;;;;;;;;;;;;;;;;;5110392;28;19944;-70
2023/09/03 00:24:00;;;;;;;;;;;;;;;;;;5111191;28;20398;-70
2023/09/03 00:28:27;;;;;;;;;;;;;;;;;;5091885;27;20295;-72
2023/09/03 00:30:53;;;;;;;;;;;;;;;;;;5090928;28;20011;-72
2023/09/03 00:33:19;;;;;;;;;;;;;;;;;;5091229;28;19909;-72
2023/09/03 00:35:46;;;;;;;;;;;;;;;;;;5091267;28;19912;-72
2023/09/03 00:38:12;;;;;;;;;;;;;;;;;;5091148;28;19918;-73
2023/09/03 00:41:40;;;;;;;;;;;;;;;;;;5091432;28;19922;-71
2023/09/03 00:50:27;;;;;;;;;;;;;;;;;;5091097;27;19922;-71
2023/09/03 00:52:53;;;;;;;;;;;;;;;;;;5091220;28;19919;-72
2023/09/03 00:58:07;;;;;;;;;;;;;;;;;;5091179;27;19918;-71
2023/09/03 01:01:55;;;;;;;;;;;;;;;;;;5091589;27;19916;-72
2023/09/03 01:04:55;;;;;;;;;;;;;;;;;;5091324;27;20295;-72
2023/09/03 01:09:27;;;;;;;;;;;;;;;;;;5092065;27;19917;-71
2023/09/03 01:18:02;;;;;;;;;;;;;;;;;;5091389;27;19912;-71
2023/09/03 01:20:27;;;;;;;;;;;;;;;;;;5091369;28;20003;-71
2023/09/03 01:23:46;;;;;;;;;;;;;;;;;;5111731;27;19916;-70
2023/09/03 01:26:12;;;;;;;;;;;;;;;;;;5109947;28;20339;-70
2023/09/03 01:28:38;;;;;;;;;;;;;;;;;;5111548;28;19908;-70
2023/09/03 01:31:06;;;;;;;;;;;;;;;;;;5110237;28;19915;-70
2023/09/03 01:37:24;;;;;;;;;;;;;;;;;;5112202;27;20414;-71
2023/09/03 01:39:50;;;;;;;;;;;;;;;;;;5109992;28;20003;-71
2023/09/03 01:43:51;;;;;;;;;;;;;;;;;;5111866;27;19916;-71
2023/09/03 01:46:17;;;;;;;;;;;;;;;;;;5111221;28;19912;-71
2023/09/03 01:48:43;;;;;;;;;;;;;;;;;;5110266;28;20368;-71
2023/09/03 01:51:08;;;;;;;;;;;;;;;;;;5110203;28;20322;-71
2023/09/03 01:53:34;;;;;;;;;;;;;;;;;;5111045;28;19908;-71
2023/09/03 01:58:24;;;;;;;;;;;;;;;;;;5091335;28;20292;-71
2023/09/03 02:04:56;;;;;;;;;;;;;;;;;;5091751;27;19923;-71
2023/09/03 02:07:22;;;;;;;;;;;;;;;;;;5089625;28;20087;-71
2023/09/03 02:10:53;;;;;;;;;;;;;;;;;;5071474;28;19923;-71
2023/09/03 02:13:19;;;;;;;;;;;;;;;;;;5071366;28;19912;-71
2023/09/03 02:19:18;;;;;;;;;;;;;;;;;;5091887;27;20402;-71
2023/09/03 02:30:20;;;;;;;;;;;;;;;;;;5111286;27;19916;-71
2023/09/03 02:32:46;;;;;;;;;;;;;;;;;;5111808;28;20002;-71
2023/09/03 02:35:12;;;;;;;;;;;;;;;;;;5111680;28;19944;-70
2023/09/03 02:37:38;;;;;;;;;;;;;;;;;;5109808;28;19954;-71
2023/09/03 02:40:04;;;;;;;;;;;;;;;;;;5111767;28;19908;-71
2023/09/03 02:43:01;;;;;;;;;;;;;;;;;;5111815;27;19916;-71
2023/09/03 02:45:27;;;;;;;;;;;;;;;;;;5111469;28;20108;-71
2023/09/03 02:48:27;;;;;;;;;;;;;;;;;;5091700;27;19913;-71
2023/09/03 02:53:34;;;;;;;;;;;;;;;;;;5091492;27;19996;-72
2023/09/03 02:57:16;;;;;;;;;;;;;;;;;;5090886;27;19922;-71
2023/09/03 03:00:19;;;;;;;;;;;;;;;;;;5091781;28;19913;-71
2023/09/03 03:03:05;;;;;;;;;;;;;;;;;;5152881;27;20002;-71
2023/09/03 03:05:31;;;;;;;;;;;;;;;;;;5152473;27;19911;-71
2023/09/03 03:09:49;;;;;;;;;;;;;;;;;;5092090;27;19913;-71
2023/09/03 03:12:15;;;;;;;;;;;;;;;;;;5089622;28;20003;-71
2023/09/03 03:16:24;;;;;;;;;;;;;;;;;;5112350;27;19926;-71
2023/09/03 03:18:52;;;;;;;;;;;;;;;;;;5111270;28;20283;-71
2023/09/03 03:21:19;;;;;;;;;;;;;;;;;;5111542;28;19915;-72
2023/09/03 03:23:45;;;;;;;;;;;;;;;;;;5111483;28;19911;-71
2023/09/03 03:26:11;;;;;;;;;;;;;;;;;;5111065;28;19908;-71
2023/09/03 03:42:12;;;;;;;;;;;;;;;;;;5091397;27;19923;-71
2023/09/03 03:45:02;;;;;;;;;;;;;;;;;;5091508;27;19916;-71
2023/09/03 03:47:28;;;;;;;;;;;;;;;;;;5090978;28;19912;-71
2023/09/03 03:54:16;;;;;;;;;;;;;;;;;;5091031;27;19923;-70
2023/09/03 03:56:42;;;;;;;;;;;;;;;;;;5091342;28;19912;-71
2023/09/03 04:00:17;;;;;;;;;;;;;;;;;;5173382;27;19918;-70
2023/09/03 04:02:43;;;;;;;;;;;;;;;;;;5173749;27;19911;-71
2023/09/03 04:05:09;;;;;;;;;;;;;;;;;;5173657;27;19907;-71
2023/09/03 04:08:21;;;;;;;;;;;;;;;;;;5091111;27;19923;-71
2023/09/03 04:14:00;;;;;;;;;;;;;;;;;;5111380;27;19912;-70
2023/09/03 04:16:26;;;;;;;;;;;;;;;;;;5112170;28;20431;-71
2023/09/03 04:21:58;;;;;;;;;;;;;;;;;;5091135;28;19917;-70
2023/09/03 04:24:24;;;;;;;;;;;;;;;;;;5089925;28;20008;-71
2023/09/03 04:27:35;;;;;;;;;;;;;;;;;;5112132;27;19918;-71
2023/09/03 04:34:26;;;;;;;;;;;;;;;;;;5111851;27;19916;-71
2023/09/03 04:36:52;;;;;;;;;;;;;;;;;;5111194;28;20002;-71
2023/09/03 04:39:18;;;;;;;;;;;;;;;;;;5111549;28;19908;-71
2023/09/03 04:42:00;;;;;;;;;;;;;;;;;;5111542;27;20302;-73
2023/09/03 04:46:25;;;;;;;;;;;;;;;;;;5091900;27;19917;-71
2023/09/03 04:48:51;;;;;;;;;;;;;;;;;;5091304;28;20332;-72
2023/09/03 04:53:15;;;;;;;;;;;;;;;;;;5111811;27;20368;-72
2023/09/03 04:56:00;;;;;;;;;;;;;;;;;;5091662;27;19916;-71
2023/09/03 04:58:26;;;;;;;;;;;;;;;;;;5091316;28;20348;-71
2023/09/03 05:01:36;;;;;;;;;;;;;;;;;;5112335;27;19922;-71
2023/09/03 05:04:03;;;;;;;;;;;;;;;;;;5111375;28;20015;-72
2023/09/03 05:10:55;;;;;;;;;;;;;;;;;;5111707;27;19912;-71
2023/09/03 05:13:21;;;;;;;;;;;;;;;;;;5111647;28;20328;-71
2023/09/03 05:16:00;;;;;;;;;;;;;;;;;;5092129;27;19938;-71
2023/09/03 05:18:26;;;;;;;;;;;;;;;;;;5090862;28;20428;-71
2023/09/03 05:20:53;;;;;;;;;;;;;;;;;;5091229;28;19908;-71
2023/09/03 05:23:19;;;;;;;;;;;;;;;;;;5089875;28;19908;-71
2023/09/03 05:27:26;;;;;;;;;;;;;;;;;;5071132;28;20300;-70
2023/09/03 05:29:52;;;;;;;;;;;;;;;;;;5071328;28;19999;-71
2023/09/03 05:32:19;;;;;;;;;;;;;;;;;;5070647;28;20327;-72
2023/09/03 05:34:45;;;;;;;;;;;;;;;;;;5069691;28;20386;-72
2023/09/03 05:37:11;;;;;;;;;;;;;;;;;;5071222;28;20007;-72
2023/09/03 05:40:46;;;;;;;;;;;;;;;;;;5091811;27;19916;-70
2023/09/03 05:43:12;;;;;;;;;;;;;;;;;;5091254;28;20027;-71
2023/09/03 05:45:38;;;;;;;;;;;;;;;;;;5090853;28;19954;-71
2023/09/03 05:51:38;;;;;;;;;;;;;;;;;;5111709;27;19922;-71
2023/09/03 05:55:49;;;;;;;;;;;;;;;;;;5091631;28;19916;-72
2023/09/03 05:58:16;;;;;;;;;;;;;;;;;;5091340;28;20000;-72
2023/09/03 06:00:42;;;;;;;;;;;;;;;;;;5090934;28;19988;-72
2023/09/03 06:03:08;;;;;;;;;;;;;;;;;;5091234;28;19999;-71
2023/09/03 06:07:00;;;;;;;;;;;;;;;;;;5111329;27;19912;-71
2023/09/03 06:09:26;;;;;;;;;;;;;;;;;;5110463;28;19935;-71
2023/09/03 06:13:32;;;;;;;;;;;;;;;;;;5091648;27;20271;-72
2023/09/03 06:15:58;;;;;;;;;;;;;;;;;;5091325;28;20403;-71
2023/09/03 06:18:24;;;;;;;;;;;;;;;;;;5091385;28;19908;-71
2023/09/03 06:21:17;;;;;;;;;;;;;;;;;;5111492;27;19912;-71
2023/09/03 06:24:07;;;;;;;;;;;;;;;;;;5112007;27;19916;-70
2023/09/03 06:26:33;;;;;;;;;;;;;;;;;;5111956;28;19916;-70
2023/09/03 06:28:59;;;;;;;;;;;;;;;;;;5111133;28;19947;-70
2023/09/03 06:31:35;;;;;;;;;;;;;;;;;;5092186;27;19923;-72
2023/09/03 06:34:01;;;;;;;;;;;;;;;;;;5091217;28;20333;-72
2023/09/03 06:37:12;;;;;;;;;;;;;;;;;;5152910;27;20011;-71
2023/09/03 06:39:38;;;;;;;;;;;;;;;;;;5152863;27;19965;-71
2023/09/03 06:42:04;;;;;;;;;;;;;;;;;;5133759;27;19908;-71
2023/09/03 06:44:30;;;;;;;;;;;;;;;;;;5134110;27;19908;-71
2023/09/03 06:46:56;;;;;;;;;;;;;;;;;;5152687;27;20011;-71
2023/09/03 06:50:23;;;;;;;;;;;;;;;;;;5091002;27;19917;-70
2023/09/03 06:52:49;;;;;;;;;;;;;;;;;;5091490;28;20015;-71
2023/09/03 06:55:15;;;;;;;;;;;;;;;;;;5089906;28;19908;-70
2023/09/03 06:57:41;;;;;;;;;;;;;;;;;;5089469;28;19938;-71
2023/09/03 07:01:07;;;;;;;;;;;;;;;;;;5071857;28;20276;-70
2023/09/03 07:03:33;;;;;;;;;;;;;;;;;;5070597;28;19999;-71
2023/09/03 07:11:56;;;;;;;;;;;;;;;;;;5111343;27;19923;-71
2023/09/03 07:14:22;;;;;;;;;;;;;;;;;;5111586;28;20002;-71
2023/09/03 07:18:09;;;;;;;;;;;;;;;;;;5050721;28;19923;-71
2023/09/03 07:20:35;;;;;;;;;;;;;;;;;;5051141;28;19913;-71
2023/09/03 07:23:01;;;;;;;;;;;;;;;;;;5051397;28;19909;-71
2023/09/03 07:25:27;;;;;;;;;;;;;;;;;;5050603;28;19999;-72
2023/09/03 07:29:30;;;;;;;;;;;;;;;;;;5091840;28;19916;-71
2023/09/03 07:34:21;;;;;;;;;;;;;;;;;;5091941;27;19917;-72
2023/09/03 07:36:47;;;;;;;;;;;;;;;;;;5091142;28;20003;-70
2023/09/03 07:39:13;;;;;;;;;;;;;;;;;;5090804;28;19908;-71
2023/09/03 07:41:39;;;;;;;;;;;;;;;;;;5091177;28;19908;-71
2023/09/03 07:44:05;;;;;;;;;;;;;;;;;;5089776;28;20375;-72
2023/09/03 07:46:31;;;;;;;;;;;;;;;;;;5089542;28;20368;-72
2023/09/03 07:48:57;;;;;;;;;;;;;;;;;;5091055;28;19909;-71
2023/09/03 07:51:23;;;;;;;;;;;;;;;;;;5090822;28;20120;-71
2023/09/03 07:53:49;;;;;;;;;;;;;;;;;;5090550;28;19923;-72
2023/09/03 07:56:15;;;;;;;;;;;;;;;;;;5090752;28;20330;-72
2023/09/03 07:58:42;;;;;;;;;;;;;;;;;;5089608;28;19958;-72
2023/09/03 08:01:10;;;;;;;;;;;;;;;;;;5090480;28;19912;-72
2023/09/03 08:03:36;;;;;;;;;;;;;;;;;;5090683;28;19908;-71
2023/09/03 08:06:02;;;;;;;;;;;;;;;;;;5090285;28;19954;-72
2023/09/03 08:08:28;;;;;;;;;;;;;;;;;;5090839;28;19915;-71
2023/09/03 08:10:54;;;;;;;;;;;;;;;;;;5090642;28;20313;-72
2023/09/03 08:13:20;;;;;;;;;;;;;;;;;;5090154;28;20275;-72
2023/09/03 08:15:46;;;;;;;;;;;;;;;;;;5090470;28;19931;-70
2023/09/03 08:18:12;;;;;;;;;;;;;;;;;;5090424;28;19908;-70
2023/09/03 08:20:38;;;;;;;;;;;;;;;;;;5090036;28;19996;-70
2023/09/03 08:23:04;;;;;;;;;;;;;;;;;;5090362;28;19908;-70
2023/09/03 08:25:30;;;;;;;;;;;;;;;;;;5090617;28;19908;-70
2023/09/03 08:29:25;;;;;;;;;;;;;;;;;;5111830;27;19918;-71
2023/09/03 08:32:00;;;;;;;;;;;;;;;;;;5111944;28;20002;-71
2023/09/03 08:34:26;;;;;;;;;;;;;;;;;;5111180;28;19908;-71
2023/09/03 08:36:52;;;;;;;;;;;;;;;;;;5111505;28;19912;-72
2023/09/03 08:39:18;;;;;;;;;;;;;;;;;;5111493;28;19955;-71
2023/09/03 08:41:44;;;;;;;;;;;;;;;;;;5109693;28;19908;-72
2023/09/03 08:44:10;;;;;;;;;;;;;;;;;;5110055;28;19912;-71
2023/09/03 08:46:36;;;;;;;;;;;;;;;;;;5111401;28;19959;-71
2023/09/03 08:49:02;;;;;;;;;;;;;;;;;;5110843;28;19916;-72
2023/09/03 08:51:28;;;;;;;;;;;;;;;;;;5111237;28;19908;-70
2023/09/03 08:53:54;;;;;;;;;;;;;;;;;;5111326;28;20069;-71
2023/09/03 08:56:20;;;;;;;;;;;;;;;;;;5109545;28;20284;-70
2023/09/03 08:58:46;;;;;;;;;;;;;;;;;;5111143;28;20374;-71
2023/09/03 09:01:12;;;;;;;;;;;;;;;;;;5111075;28;19915;-70
2023/09/03 09:03:38;;;;;;;;;;;;;;;;;;5110607;28;20057;-71
2023/09/03 09:06:05;;;;;;;;;;;;;;;;;;5109729;28;19953;-71
2023/09/03 09:08:31;;;;;;;;;;;;;;;;;;5110899;28;19969;-71
2023/09/03 09:10:57;;;;;;;;;;;;;;;;;;5110615;28;19912;-70
2023/09/03 09:13:24;;;;;;;;;;;;;;;;;;5109544;28;19923;-71
2023/09/03 09:15:50;;;;;;;;;;;;;;;;;;5109508;28;19908;-70
2023/09/03 09:18:16;;;;;;;;;;;;;;;;;;5110413;28;19908;-70
2023/09/03 09:20:42;;;;;;;;;;;;;;;;;;5110904;28;20013;-70
2023/09/03 09:23:08;;;;;;;;;;;;;;;;;;5110776;28;20006;-72
2023/09/03 09:25:34;;;;;;;;;;;;;;;;;;5110351;28;19912;-72
2023/09/03 09:28:00;;;;;;;;;;;;;;;;;;5109121;28;19958;-71
2023/09/03 09:30:26;;;;;;;;;;;;;;;;;;5108871;28;19912;-73
2023/09/03 09:32:52;;;;;;;;;;;;;;;;;;5110438;28;20323;-71
2023/09/03 09:35:18;;;;;;;;;;;;;;;;;;5110439;28;19908;-71
2023/09/03 09:37:45;;;;;;;;;;;;;;;;;;5110194;28;20461;-71
2023/09/03 09:40:12;;;;;;;;;;;;;;;;;;5099860;28;19919;-71
2023/09/03 09:42:38;;;;;;;;;;;;;;;;;;5096732;28;19915;-71
2023/09/03 09:45:04;;;;;;;;;;;;;;;;;;5094972;28;19908;-71
2023/09/03 09:47:30;;;;;;;;;;;;;;;;;;5096569;28;19912;-71
2023/09/03 09:49:56;;;;;;;;;;;;;;;;;;5096551;28;19912;-72
2023/09/03 09:52:22;;;;;;;;;;;;;;;;;;5096217;28;19908;-71
2023/09/03 09:54:48;;;;;;;;;;;;;;;;;;5096243;28;20275;-71
2023/09/03 09:57:14;;;;;;;;;;;;;;;;;;5095100;28;19962;-71
2023/09/03 09:59:40;;;;;;;;;;;;;;;;;;5095982;28;19908;-72
2023/09/03 10:02:06;;;;;;;;;;;;;;;;;;5096375;28;19908;-71
2023/09/03 10:04:32;;;;;;;;;;;;;;;;;;5096241;28;19915;-72
2023/09/03 10:06:58;;;;;;;;;;;;;;;;;;5095809;28;19908;-71
2023/09/03 10:09:24;;;;;;;;;;;;;;;;;;5094957;28;19920;-72
2023/09/03 10:11:50;;;;;;;;;;;;;;;;;;5096177;28;20339;-71
2023/09/03 10:14:16;;;;;;;;;;;;;;;;;;5095784;28;20003;-71
2023/09/03 10:16:42;;;;;;;;;;;;;;;;;;5096168;28;19915;-71
2023/09/03 10:19:08;;;;;;;;;;;;;;;;;;5096128;28;19908;-70
2023/09/03 10:21:33;;;;;;;;;;;;;;;;;;5095454;28;20431;-71
2023/09/03 10:24:00;;;;;;;;;;;;;;;;;;5096076;28;20016;-70
2023/09/03 10:26:26;;;;;;;;;;;;;;;;;;5095724;28;20022;-71
2023/09/03 10:28:52;;;;;;;;;;;;;;;;;;5093715;28;20010;-71
2023/09/03 10:31:18;;;;;;;;;;;;;;;;;;5095699;28;19915;-71
2023/09/03 10:33:44;;;;;;;;;;;;;;;;;;5095314;28;19908;-72
2023/09/03 10:36:10;;;;;;;;;;;;;;;;;;5095525;28;20356;-72
2023/09/03 10:38:36;;;;;;;;;;;;;;;;;;5095544;28;20359;-72
2023/09/03 10:41:02;;;;;;;;;;;;;;;;;;5095491;28;20414;-72
2023/09/03 10:43:28;;;;;;;;;;;;;;;;;;5095521;28;20261;-71
2023/09/03 10:45:54;;;;;;;;;;;;;;;;;;5095508;28;20314;-70
2023/09/03 10:48:21;;;;;;;;;;;;;;;;;;5095007;28;20299;-70
2023/09/03 10:50:50;;;;;;;;;;;;;;;;;;5094461;28;19915;-71
2023/09/03 10:53:16;;;;;;;;;;;;;;;;;;5094017;28;19916;-71
2023/09/03 10:55:42;;;;;;;;;;;;;;;;;;5093641;28;20288;-71
2023/09/03 10:58:08;;;;;;;;;;;;;;;;;;5095283;28;20280;-72
2023/09/03 11:00:34;;;;;;;;;;;;;;;;;;5095227;28;19915;-71
2023/09/03 11:03:00;;;;;;;;;;;;;;;;;;5094802;28;19912;-71
2023/09/03 11:05:29;;;;;;;;;;;;;;;;;;5095069;28;19930;-71
2023/09/03 11:07:55;;;;;;;;;;;;;;;;;;5095025;28;19916;-71
2023/09/03 11:10:21;;;;;;;;;;;;;;;;;;5094705;28;19916;-71
2023/09/03 11:12:47;;;;;;;;;;;;;;;;;;5095212;28;19909;-71
2023/09/03 11:15:13;;;;;;;;;;;;;;;;;;5093547;28;19912;-71
2023/09/03 11:17:39;;;;;;;;;;;;;;;;;;5093255;28;19976;-71
2023/09/03 11:20:05;;;;;;;;;;;;;;;;;;5094886;28;19912;-71
2023/09/03 11:22:36;;;;;;;;;;;;;;;;;;5094815;28;19908;-71
2023/09/03 11:25:02;;;;;;;;;;;;;;;;;;5093073;28;20334;-71
2023/09/03 11:27:28;;;;;;;;;;;;;;;;;;5094499;28;19920;-71
2023/09/03 11:29:54;;;;;;;;;;;;;;;;;;5094264;28;20383;-71
2023/09/03 11:32:20;;;;;;;;;;;;;;;;;;5094711;28;19908;-71
2023/09/03 11:34:46;;;;;;;;;;;;;;;;;;5094557;28;19915;-71
2023/09/03 11:37:12;;;;;;;;;;;;;;;;;;5092958;28;19915;-72
2023/09/03 11:39:38;;;;;;;;;;;;;;;;;;5094468;28;19908;-71
2023/09/03 11:42:04;;;;;;;;;;;;;;;;;;5094713;28;19914;-71
2023/09/03 11:44:30;;;;;;;;;;;;;;;;;;5094038;28;19943;-71
2023/09/03 11:46:57;;;;;;;;;;;;;;;;;;5094434;28;19908;-71
2023/09/03 11:49:22;;;;;;;;;;;;;;;;;;5094334;28;20451;-71
2023/09/03 11:51:48;;;;;;;;;;;;;;;;;;5094121;28;19947;-72
2023/09/03 11:54:14;;;;;;;;;;;;;;;;;;5094341;28;19908;-72
2023/09/03 11:56:40;;;;;;;;;;;;;;;;;;5094258;28;20386;-72
2023/09/03 11:59:06;;;;;;;;;;;;;;;;;;5093916;28;20383;-73
2023/09/03 12:01:32;;;;;;;;;;;;;;;;;;5094199;28;20324;-73
2023/09/03 12:03:58;;;;;;;;;;;;;;;;;;5092579;28;20318;-72
2023/09/03 12:06:24;;;;;;;;;;;;;;;;;;5092389;28;19991;-70
2023/09/03 12:08:50;;;;;;;;;;;;;;;;;;5093995;28;20003;-72
2023/09/03 12:11:16;;;;;;;;;;;;;;;;;;5094102;28;20002;-72
2023/09/03 12:13:44;;;;;;;;;;;;;;;;;;5093610;28;19908;-72
2023/09/03 12:16:10;;;;;;;;;;;;;;;;;;5094020;28;19920;-72
2023/09/03 12:18:36;;;;;;;;;;;;;;;;;;5092798;28;19915;-72
2023/09/03 12:21:02;;;;;;;;;;;;;;;;;;5093371;28;19995;-72
2023/09/03 12:23:28;;;;;;;;;;;;;;;;;;5093859;28;20098;-72
2023/09/03 12:25:54;;;;;;;;;;;;;;;;;;5093801;28;20368;-72
2023/09/03 12:28:22;;;;;;;;;;;;;;;;;;5093214;28;19926;-72
2023/09/03 12:30:48;;;;;;;;;;;;;;;;;;5093837;28;19915;-72
2023/09/03 12:33:14;;;;;;;;;;;;;;;;;;5093587;28;19913;-72
2023/09/03 12:35:40;;;;;;;;;;;;;;;;;;5093790;28;20481;-72
2023/09/03 12:38:06;;;;;;;;;;;;;;;;;;5093690;28;19908;-72
2023/09/03 12:40:32;;;;;;;;;;;;;;;;;;5093324;28;20287;-72
2023/09/03 12:42:58;;;;;;;;;;;;;;;;;;5093872;28;19952;-72
2023/09/03 12:45:24;;;;;;;;;;;;;;;;;;5092424;28;19919;-72
2023/09/03 12:47:49;;;;;;;;;;;;;;;;;;5093194;28;19916;-72
2023/09/03 12:50:15;;;;;;;;;;;;;;;;;;5093668;28;19933;-72
2023/09/03 12:52:43;;;;;;;;;;;;;;;;;;5093607;28;19908;-72
2023/09/03 12:55:09;;;;;;;;;;;;;;;;;;5093157;28;20002;-72
2023/09/03 12:57:35;;;;;;;;;;;;;;;;;;5092317;28;19959;-71
2023/09/03 13:00:04;;;;;;;;;;;;;;;;;;5092270;28;19934;-71
2023/09/03 13:02:30;;;;;;;;;;;;;;;;;;5091923;28;19962;-72
2023/09/03 13:04:56;;;;;;;;;;;;;;;;;;5093501;28;20280;-71
2023/09/03 13:07:22;;;;;;;;;;;;;;;;;;5093427;28;20424;-72
2023/09/03 13:09:48;;;;;;;;;;;;;;;;;;5093076;28;19912;-71
2023/09/03 13:12:14;;;;;;;;;;;;;;;;;;5093467;28;19954;-71
2023/09/03 13:14:40;;;;;;;;;;;;;;;;;;5094734;28;19908;-71
2023/09/03 13:17:06;;;;;;;;;;;;;;;;;;5096954;28;19999;-71
2023/09/03 13:19:32;;;;;;;;;;;;;;;;;;5097199;28;19908;-71
2023/09/03 13:21:58;;;;;;;;;;;;;;;;;;5095904;28;19913;-70
2023/09/03 13:24:24;;;;;;;;;;;;;;;;;;5096959;28;20015;-70
2023/09/03 13:26:51;;;;;;;;;;;;;;;;;;5097107;28;20355;-72
2023/09/03 13:29:16;;;;;;;;;;;;;;;;;;5096886;28;19920;-73
2023/09/03 13:31:42;;;;;;;;;;;;;;;;;;5096657;28;19961;-72
2023/09/03 13:34:08;;;;;;;;;;;;;;;;;;5096924;28;20004;-72
2023/09/03 13:36:34;;;;;;;;;;;;;;;;;;5096514;28;19908;-72
2023/09/03 13:39:01;;;;;;;;;;;;;;;;;;5097274;28;19918;-72
2023/09/03 13:41:27;;;;;;;;;;;;;;;;;;5096840;28;19908;-72
2023/09/03 13:43:53;;;;;;;;;;;;;;;;;;5096366;28;19915;-72
2023/09/03 13:46:21;;;;;;;;;;;;;;;;;;5096702;28;20040;-72
2023/09/03 13:48:48;;;;;;;;;;;;;;;;;;5096578;28;19922;-70
2023/09/03 13:51:15;;;;;;;;;;;;;;;;;;5096255;28;19908;-72
2023/09/03 13:53:41;;;;;;;;;;;;;;;;;;5097000;28;19909;-71
2023/09/03 13:56:07;;;;;;;;;;;;;;;;;;5095161;28;19915;-71
2023/09/03 13:58:33;;;;;;;;;;;;;;;;;;5096031;28;19915;-71
2023/09/03 14:00:58;;;;;;;;;;;;;;;;;;5096316;28;20407;-71
2023/09/03 14:03:24;;;;;;;;;;;;;;;;;;5096261;28;20003;-71
2023/09/03 14:05:50;;;;;;;;;;;;;;;;;;5095874;28;19916;-71
2023/09/03 14:08:16;;;;;;;;;;;;;;;;;;5096402;28;19916;-71
2023/09/03 14:10:42;;;;;;;;;;;;;;;;;;5096421;28;19947;-70
2023/09/03 14:13:08;;;;;;;;;;;;;;;;;;5094381;28;20008;-70
2023/09/03 14:15:34;;;;;;;;;;;;;;;;;;5094599;28;19908;-71
2023/09/03 14:18:00;;;;;;;;;;;;;;;;;;5096204;28;19915;-71
2023/09/03 14:20:26;;;;;;;;;;;;;;;;;;5095600;28;19908;-71
2023/09/03 14:22:53;;;;;;;;;;;;;;;;;;5095813;28;19961;-71
2023/09/03 14:25:19;;;;;;;;;;;;;;;;;;5094386;28;20424;-71
2023/09/03 14:27:45;;;;;;;;;;;;;;;;;;5095212;28;19966;-73
2023/09/03 14:30:11;;;;;;;;;;;;;;;;;;5095912;28;19943;-72
2023/09/03 14:32:37;;;;;;;;;;;;;;;;;;5096252;28;19953;-71
2023/09/03 14:35:03;;;;;;;;;;;;;;;;;;5095333;28;19916;-71
2023/09/03 14:37:29;;;;;;;;;;;;;;;;;;5095595;28;19912;-71
2023/09/03 14:39:55;;;;;;;;;;;;;;;;;;5095176;28;20250;-71
2023/09/03 14:42:21;;;;;;;;;;;;;;;;;;5095451;28;20272;-72
2023/09/03 14:44:47;;;;;;;;;;;;;;;;;;5094076;28;19991;-72
2023/09/03 14:47:13;;;;;;;;;;;;;;;;;;5093565;28;20027;-72
2023/09/03 14:49:39;;;;;;;;;;;;;;;;;;5095253;28;20425;-73
2023/09/03 14:52:05;;;;;;;;;;;;;;;;;;5095486;28;20074;-72
2023/09/03 14:54:31;;;;;;;;;;;;;;;;;;5094875;28;20368;-72
2023/09/03 14:56:57;;;;;;;;;;;;;;;;;;5095240;28;19915;-72
2023/09/03 14:59:23;;;;;;;;;;;;;;;;;;5095193;28;20496;-72
2023/09/03 15:01:49;;;;;;;;;;;;;;;;;;5093765;28;20030;-72
2023/09/03 15:04:16;;;;;;;;;;;;;;;;;;5095031;28;20352;-72
2023/09/03 15:06:42;;;;;;;;;;;;;;;;;;5095091;28;19908;-72
2023/09/03 15:09:08;;;;;;;;;;;;;;;;;;5094763;28;20387;-72
2023/09/03 15:11:34;;;;;;;;;;;;;;;;;;5095153;28;19912;-72
2023/09/03 15:14:05;;;;;;;;;;;;;;;;;;5095077;28;19944;-72
2023/09/03 15:16:33;;;;;;;;;;;;;;;;;;5094597;28;19908;-72
2023/09/03 15:18:59;;;;;;;;;;;;;;;;;;5094767;28;19923;-72
2023/09/03 15:21:25;;;;;;;;;;;;;;;;;;5094669;28;19908;-73
2023/09/03 15:23:51;;;;;;;;;;;;;;;;;;5094452;28;19961;-72
2023/09/03 15:26:17;;;;;;;;;;;;;;;;;;5094767;28;19915;-73
2023/09/03 15:28:43;;;;;;;;;;;;;;;;;;5094483;28;19931;-72
2023/09/03 15:31:09;;;;;;;;;;;;;;;;;;5094383;28;20394;-72
2023/09/03 15:33:35;;;;;;;;;;;;;;;;;;5094606;28;20364;-73
2023/09/03 15:36:01;;;;;;;;;;;;;;;;;;5093306;28;19912;-72
2023/09/03 15:38:27;;;;;;;;;;;;;;;;;;5094259;28;19995;-73
2023/09/03 15:40:53;;;;;;;;;;;;;;;;;;5093254;28;19951;-72
2023/09/03 15:43:21;;;;;;;;;;;;;;;;;;5094200;28;19965;-72
2023/09/03 15:45:46;;;;;;;;;;;;;;;;;;5094451;28;19908;-73
2023/09/03 15:48:12;;;;;;;;;;;;;;;;;;5094296;28;19923;-71
2023/09/03 15:50:38;;;;;;;;;;;;;;;;;;5093845;28;19908;-71
2023/09/03 15:53:04;;;;;;;;;;;;;;;;;;5094193;28;20257;-72
2023/09/03 15:55:31;;;;;;;;;;;;;;;;;;5094190;28;19970;-72
2023/09/03 15:57:57;;;;;;;;;;;;;;;;;;5093744;28;19984;-72
2023/09/03 16:00:23;;;;;;;;;;;;;;;;;;5094199;28;19908;-72
2023/09/03 16:02:49;;;;;;;;;;;;;;;;;;5094201;28;19912;-71
2023/09/03 16:05:14;;;;;;;;;;;;;;;;;;5093661;28;19951;-72
2023/09/03 16:07:40;;;;;;;;;;;;;;;;;;5093938;28;19923;-71
2023/09/03 16:10:06;;;;;;;;;;;;;;;;;;5094162;28;19908;-71
2023/09/03 16:12:32;;;;;;;;;;;;;;;;;;5092278;28;19993;-73
2023/09/03 16:15:00;;;;;;;;;;;;;;;;;;5092725;28;19908;-71
2023/09/03 16:17:26;;;;;;;;;;;;;;;;;;5093865;28;19914;-72
2023/09/03 16:19:52;;;;;;;;;;;;;;;;;;5093489;28;19995;-71
2023/09/03 16:22:18;;;;;;;;;;;;;;;;;;5093989;28;19915;-72
2023/09/03 16:24:44;;;;;;;;;;;;;;;;;;5093759;28;19908;-72
2023/09/03 16:27:10;;;;;;;;;;;;;;;;;;5093237;28;19966;-72
2023/09/03 16:29:36;;;;;;;;;;;;;;;;;;5093622;28;19908;-72
2023/09/03 16:32:02;;;;;;;;;;;;;;;;;;5092371;28;19908;-72
2023/09/03 16:34:28;;;;;;;;;;;;;;;;;;5093233;28;19915;-72
2023/09/03 16:36:54;;;;;;;;;;;;;;;;;;5093715;28;19908;-72
2023/09/03 16:39:22;;;;;;;;;;;;;;;;;;5093219;28;19908;-72
2023/09/03 16:41:48;;;;;;;;;;;;;;;;;;5094018;28;19930;-72
2023/09/03 16:44:14;;;;;;;;;;;;;;;;;;5093582;28;19912;-72
2023/09/03 16:46:40;;;;;;;;;;;;;;;;;;5093317;28;19916;-71
2023/09/03 16:49:06;;;;;;;;;;;;;;;;;;5094326;28;20410;-71
2023/09/03 16:51:32;;;;;;;;;;;;;;;;;;5097653;28;20381;-72
2023/09/03 16:53:57;;;;;;;;;;;;;;;;;;5097057;28;19908;-72
2023/09/03 16:56:23;;;;;;;;;;;;;;;;;;5097227;28;19999;-72
2023/09/03 16:58:49;;;;;;;;;;;;;;;;;;5096021;28;20280;-72
2023/09/03 17:01:15;;;;;;;;;;;;;;;;;;5097003;28;19977;-72
2023/09/03 17:03:41;;;;;;;;;;;;;;;;;;5097282;28;20004;-72
2023/09/03 17:06:08;;;;;;;;;;;;;;;;;;5097312;28;19908;-72
2023/09/03 17:08:34;;;;;;;;;;;;;;;;;;5096797;28;19956;-72
2023/09/03 17:11:01;;;;;;;;;;;;;;;;;;5097314;28;19915;-72
2023/09/03 17:13:27;;;;;;;;;;;;;;;;;;5097292;28;20279;-72
2023/09/03 17:15:53;;;;;;;;;;;;;;;;;;5096705;28;19986;-71
2023/09/03 17:18:19;;;;;;;;;;;;;;;;;;5097713;28;20337;-72
2023/09/03 17:20:45;;;;;;;;;;;;;;;;;;5097188;28;20322;-72
2023/09/03 17:23:10;;;;;;;;;;;;;;;;;;5096907;28;20276;-71
2023/09/03 17:25:36;;;;;;;;;;;;;;;;;;5097051;28;20263;-71
2023/09/03 17:28:02;;;;;;;;;;;;;;;;;;5096687;28;20383;-72
2023/09/03 17:30:28;;;;;;;;;;;;;;;;;;5096423;28;19908;-72
2023/09/03 17:32:54;;;;;;;;;;;;;;;;;;5096687;28;20007;-72
2023/09/03 17:35:20;;;;;;;;;;;;;;;;;;5096725;28;19912;-73
2023/09/03 17:37:48;;;;;;;;;;;;;;;;;;5096371;28;19908;-72
2023/09/03 17:40:14;;;;;;;;;;;;;;;;;;5096774;28;20334;-70
2023/09/03 17:42:40;;;;;;;;;;;;;;;;;;5096242;28;19963;-72
2023/09/03 17:45:06;;;;;;;;;;;;;;;;;;5096598;28;19912;-72
2023/09/03 17:49:37;;;;;;;;;;;;;;;;;;5091594;28;19916;-72
2023/09/03 17:52:03;;;;;;;;;;;;;;;;;;5090792;28;20429;-72
2023/09/03 17:57:00;;;;;;;;;;;;;;;;;;5111245;27;20295;-72
2023/09/03 17:59:26;;;;;;;;;;;;;;;;;;5111676;28;20007;-72
2023/09/03 18:01:52;;;;;;;;;;;;;;;;;;5111452;28;20010;-72
2023/09/03 18:04:18;;;;;;;;;;;;;;;;;;5111009;28;19908;-72
2023/09/03 18:06:44;;;;;;;;;;;;;;;;;;5111363;28;19908;-72
2023/09/03 18:09:10;;;;;;;;;;;;;;;;;;5111386;28;20390;-72
2023/09/03 18:11:36;;;;;;;;;;;;;;;;;;5110955;28;19915;-73
2023/09/03 18:14:02;;;;;;;;;;;;;;;;;;5111253;28;19908;-72
2023/09/03 18:16:28;;;;;;;;;;;;;;;;;;5111013;28;19970;-72
2023/09/03 18:18:54;;;;;;;;;;;;;;;;;;5110648;28;20261;-72
2023/09/03 18:21:20;;;;;;;;;;;;;;;;;;5111225;28;19916;-72
2023/09/03 18:23:46;;;;;;;;;;;;;;;;;;5110949;28;19960;-72
2023/09/03 18:26:12;;;;;;;;;;;;;;;;;;5110511;28;19911;-72
2023/09/03 18:28:38;;;;;;;;;;;;;;;;;;5110824;28;20364;-73
2023/09/03 18:31:04;;;;;;;;;;;;;;;;;;5109572;28;19915;-71
2023/09/03 18:33:30;;;;;;;;;;;;;;;;;;5110387;28;19935;-72
2023/09/03 18:35:56;;;;;;;;;;;;;;;;;;5110730;28;19916;-72
2023/09/03 18:38:22;;;;;;;;;;;;;;;;;;5110882;28;19908;-71
2023/09/03 18:40:48;;;;;;;;;;;;;;;;;;5110450;28;19946;-72
2023/09/03 18:43:15;;;;;;;;;;;;;;;;;;5110694;28;19919;-71
2023/09/03 18:45:41;;;;;;;;;;;;;;;;;;5109516;28;20264;-72
2023/09/03 18:48:07;;;;;;;;;;;;;;;;;;5110269;28;19908;-71
2023/09/03 18:50:33;;;;;;;;;;;;;;;;;;5110526;28;19954;-71
2023/09/03 18:52:59;;;;;;;;;;;;;;;;;;5110047;28;19908;-71
2023/09/03 18:55:25;;;;;;;;;;;;;;;;;;5110261;28;19920;-71